EDT,Max TemperatureF,Mean TemperatureF,Min TemperatureF,Max Dew PointF,MeanDew PointF,Min DewpointF,Max Humidity, Mean Humidity, Min Humidity, Max Sea Level PressureIn, Mean Sea Level PressureIn, Min Sea Level PressureIn, Max VisibilityMiles, Mean VisibilityMiles, Min VisibilityMiles, Max Wind SpeedMPH, Mean Wind SpeedMPH, Max Gust SpeedMPH,PrecipitationIn, CloudCover, Events, WindDirDegrees
2013-5-1,75,67,59,66,63,59,100,93,73,30.08,30.04,29.99,10,7,0,16,5,23,0.00,6,Fog-Rain,38
2013-5-2,69,66,64,68,66,63,100,99,88,30.05,29.97,29.92,10,5,1,16,8,24,0.13,8,Rain,39
2013-5-3,69,66,64,66,64,61,100,94,78,29.92,29.87,29.85,10,4,1,20,10,25,0.20,6,Rain,64
2013-5-4,68,66,64,68,65,59,100,95,73,29.85,29.79,29.72,10,5,1,16,8,21,0.04,7,Rain-Thunderstorm,62
2013-5-5,75,66,57,66,58,50,100,84,44,29.91,29.83,29.74,10,8,2,17,4,,0.00,5,Rain,245
2013-5-6,71,62,53,57,52,45,94,75,43,30.00,29.94,29.88,10,10,10,12,4,,0.00,2,,246
2013-5-7,77,64,50,59,54,50,100,80,47,30.04,29.98,29.93,10,10,10,20,4,,0.00,2,Rain,224
2013-5-8,80,66,51,61,56,52,100,83,42,30.12,30.06,30.01,10,9,4,15,2,,0.00,1,,252
2013-5-9,84,70,55,64,59,55,100,76,40,30.15,30.12,30.07,10,8,1,13,2,,0.00,1,Fog,250
2013-5-10,87,71,55,68,61,55,100,84,40,30.15,30.09,30.01,10,8,3,13,1,,0.00,0,,148
2013-5-11,86,73,60,72,65,61,100,93,55,30.06,30.01,29.95,10,6,2,20,2,,0.00,1,,237
2013-5-12,82,72,62,82,64,57,100,86,54,30.06,30.00,29.95,10,7,1,14,3,,0.00,2,,261
2013-5-13,77,64,50,59,50,41,100,69,28,30.17,30.09,30.03,10,10,10,14,3,,0.00,0,,337
2013-5-14,78,60,42,54,46,36,100,76,24,30.26,30.20,30.17,10,10,9,9,1,,0.00,0,,17
2013-5-15,84,66,48,59,53,48,100,76,35,30.25,30.17,30.09,10,10,7,8,1,,0.00,0,,136
2013-5-16,82,68,55,66,59,55,100,80,51,30.15,30.09,30.04,10,10,7,13,2,,0.00,0,,150
2013-5-17,86,72,57,68,62,57,100,81,40,30.13,30.09,30.06,10,10,7,13,2,,0.00,0,,117
2013-5-18,86,74,62,72,67,63,100,87,51,30.15,30.10,30.03,10,6,0,17,2,22,0.74,2,Rain-Thunderstorm,119
2013-5-19,86,76,66,73,69,66,100,93,62,30.15,30.07,30.02,10,7,0,21,2,29,0.78,2,Rain-Thunderstorm,158
2013-5-20,80,72,64,73,68,64,100,95,74,30.11,30.07,30.03,10,8,2,12,2,,0.07,2,Rain-Thunderstorm,161
2013-5-21,82,73,64,72,68,64,100,93,62,30.07,30.02,29.97,10,7,0,9,1,,0.00,3,Fog-Rain,101
2013-5-22,80,71,62,73,68,63,100,95,74,30.01,29.97,29.93,10,7,0,8,1,,0.00,1,Fog-Rain,98
2013-5-23,89,76,64,70,67,64,100,86,48,30.00,29.97,29.92,10,7,0,12,2,,0.00,2,Fog,273
2013-5-24,87,74,62,70,63,55,100,79,35,30.13,30.03,29.96,10,8,0,14,3,,0.00,0,Fog,315
2013-5-25,80,68,57,61,57,54,100,81,42,30.27,30.18,30.13,10,10,8,12,2,,0.00,0,,71
2013-5-26,82,66,51,61,55,52,100,80,37,30.25,30.20,30.17,10,10,7,13,1,,0.00,0,,75
2013-5-27,82,68,53,64,60,54,100,85,48,30.23,30.20,30.15,10,10,7,14,2,,0.00,0,,99
2013-5-28,84,70,57,68,63,57,100,85,51,30.20,30.17,30.14,10,10,7,17,2,,0.00,1,,89
2013-5-29,84,73,62,73,68,63,100,89,66,30.18,30.15,30.12,10,9,1,20,3,,0.00,2,Rain,96
2013-5-30,84,75,66,73,70,52,100,88,37,30.19,30.15,30.11,10,8,1,21,3,23,0.00,2,Rain,97
2013-5-31,84,74,64,72,69,64,100,87,62,30.17,30.13,30.10,10,8,0,20,3,,0.00,1,Fog,94